Time;durP1;ratioP1;P1;durP2;ratioP2;P2;SDS_P1;SDS_P2;PMS_P1;PMS_P2;Temp;Humidity;BMP_temperature;BMP_pressure;BME280_temperature;BME280_humidity;BME280_pressure;Samples;Min_cycle;Max_cycle;Signal;HPM_P1;HPM_P2
2024/03/29 00:00:40;;;;;;;1.58;0.55;;;;;;;;;;4965746;28;20038;-62
2024/03/29 00:03:06;;;;;;;2.00;0.70;;;;;;;;;;4957146;28;20044;-61
2024/03/29 00:05:32;;;;;;;1.23;0.70;;;;;;;;;;4952118;28;20038;-60
2024/03/29 00:07:57;;;;;;;2.03;0.75;;;;;;;;;;4957327;28;20035;-61
2024/03/29 00:10:22;;;;;;;1.48;0.52;;;;;;;;;;4962988;28;20118;-60
2024/03/29 00:12:48;;;;;;;2.08;0.60;;;;;;;;;;4956415;28;20129;-61
2024/03/29 00:15:13;;;;;;;1.85;0.75;;;;;;;;;;4961312;28;20096;-61
2024/03/29 00:17:39;;;;;;;1.73;0.63;;;;;;;;;;4960353;28;20498;-62
2024/03/29 00:20:05;;;;;;;1.92;0.60;;;;;;;;;;4964006;28;20045;-65
2024/03/29 00:22:31;;;;;;;2.13;0.57;;;;;;;;;;4963716;28;20046;-61
2024/03/29 00:24:56;;;;;;;1.60;0.63;;;;;;;;;;4964587;28;20054;-61
2024/03/29 00:27:25;;;;;;;2.08;0.70;;;;;;;;;;4962929;28;22006;-61
2024/03/29 00:29:52;;;;;;;1.50;0.60;;;;;;;;;;4968449;28;20031;-62
2024/03/29 00:32:18;;;;;;;1.40;0.57;;;;;;;;;;4964406;28;20121;-61
2024/03/29 00:34:44;;;;;;;1.10;0.50;;;;;;;;;;4956255;28;20075;-63
2024/03/29 00:37:09;;;;;;;2.13;0.75;;;;;;;;;;4971682;28;20503;-64
2024/03/29 00:39:34;;;;;;;2.13;0.60;;;;;;;;;;4961490;28;20038;-64
2024/03/29 00:42:00;;;;;;;1.58;0.70;;;;;;;;;;4954180;28;20030;-63
2024/03/29 00:44:25;;;;;;;1.52;0.68;;;;;;;;;;4963226;28;20035;-63
2024/03/29 00:46:50;;;;;;;1.48;0.50;;;;;;;;;;4962997;28;20047;-60
2024/03/29 00:49:15;;;;;;;1.60;0.60;;;;;;;;;;4950753;28;20035;-64
2024/03/29 00:51:41;;;;;;;2.08;0.77;;;;;;;;;;4950180;28;20925;-62
2024/03/29 00:54:06;;;;;;;2.13;0.60;;;;;;;;;;4968421;28;20496;-61
2024/03/29 00:56:31;;;;;;;1.42;0.60;;;;;;;;;;4964166;28;20046;-61
2024/03/29 00:58:57;;;;;;;1.30;0.60;;;;;;;;;;4953537;28;20038;-60
2024/03/29 01:01:22;;;;;;;1.48;0.60;;;;;;;;;;4960160;28;20047;-62
2024/03/29 01:03:47;;;;;;;1.40;0.60;;;;;;;;;;4971163;28;20140;-62
2024/03/29 01:06:13;;;;;;;1.80;0.70;;;;;;;;;;4953163;28;20071;-60
2024/03/29 01:08:38;;;;;;;1.38;0.50;;;;;;;;;;4940937;28;20036;-62
2024/03/29 01:11:03;;;;;;;1.52;0.50;;;;;;;;;;4956100;28;20039;-61
2024/03/29 01:13:30;;;;;;;1.35;0.70;;;;;;;;;;4951828;28;20027;-62
2024/03/29 01:15:55;;;;;;;1.65;0.70;;;;;;;;;;4959981;28;20110;-62
2024/03/29 01:18:20;;;;;;;1.40;0.70;;;;;;;;;;4963674;28;20122;-62
2024/03/29 01:20:46;;;;;;;1.25;0.65;;;;;;;;;;4967765;28;20054;-61
2024/03/29 01:23:11;;;;;;;1.58;0.70;;;;;;;;;;4981473;28;20050;-62
2024/03/29 01:25:36;;;;;;;1.55;0.65;;;;;;;;;;4959054;28;20038;-60
2024/03/29 01:28:02;;;;;;;1.80;0.60;;;;;;;;;;4977910;28;20034;-62
2024/03/29 01:30:28;;;;;;;0.93;0.40;;;;;;;;;;4963597;28;20031;-64
2024/03/29 01:32:53;;;;;;;1.58;0.60;;;;;;;;;;4958945;28;20486;-61
2024/03/29 01:35:18;;;;;;;1.20;0.68;;;;;;;;;;4956817;28;20078;-63
2024/03/29 01:37:44;;;;;;;1.27;0.63;;;;;;;;;;4966519;28;20057;-62
2024/03/29 01:40:10;;;;;;;3.33;0.60;;;;;;;;;;4950299;28;20346;-63
2024/03/29 01:42:35;;;;;;;2.25;0.80;;;;;;;;;;4959518;28;20061;-61
2024/03/29 01:45:01;;;;;;;1.77;0.63;;;;;;;;;;4948379;28;20031;-60
2024/03/29 01:47:26;;;;;;;1.40;0.60;;;;;;;;;;4958731;28;20040;-64
2024/03/29 01:49:52;;;;;;;1.75;0.55;;;;;;;;;;4963631;28;20443;-60
2024/03/29 01:52:17;;;;;;;0.98;0.57;;;;;;;;;;4964059;28;20530;-61
2024/03/29 01:54:43;;;;;;;1.23;0.60;;;;;;;;;;4963013;28;20114;-60
2024/03/29 01:57:08;;;;;;;1.52;0.60;;;;;;;;;;4951073;28;20039;-61
2024/03/29 01:59:33;;;;;;;1.35;0.55;;;;;;;;;;4964953;28;20039;-60
2024/03/29 02:01:59;;;;;;;1.67;0.60;;;;;;;;;;4973448;28;20164;-62
2024/03/29 02:04:24;;;;;;;1.80;0.80;;;;;;;;;;4966816;28;20043;-61
2024/03/29 02:06:49;;;;;;;1.23;0.52;;;;;;;;;;4967774;28;20172;-62
2024/03/29 02:09:14;;;;;;;1.55;0.70;;;;;;;;;;4961322;28;20750;-59
2024/03/29 02:11:40;;;;;;;2.45;0.52;;;;;;;;;;4967121;28;20039;-62
2024/03/29 02:14:08;;;;;;;1.00;0.40;;;;;;;;;;4966318;28;20480;-63
2024/03/29 02:16:33;;;;;;;1.58;0.60;;;;;;;;;;4950971;28;20104;-60
2024/03/29 02:18:58;;;;;;;1.73;0.70;;;;;;;;;;4959599;28;20066;-64
2024/03/29 02:21:24;;;;;;;1.27;0.60;;;;;;;;;;4964443;28;20043;-61
2024/03/29 02:23:55;;;;;;;1.02;0.40;;;;;;;;;;4966548;28;20035;-64
2024/03/29 02:26:21;;;;;;;1.45;0.70;;;;;;;;;;4959988;28;20139;-59
2024/03/29 02:28:46;;;;;;;2.03;0.68;;;;;;;;;;4954188;28;20125;-60
2024/03/29 02:31:11;;;;;;;1.55;0.50;;;;;;;;;;4957564;28;20034;-61
2024/03/29 02:33:37;;;;;;;0.98;0.52;;;;;;;;;;4965324;28;20043;-63
2024/03/29 02:36:02;;;;;;;1.75;0.60;;;;;;;;;;4952279;28;20139;-64
2024/03/29 02:38:27;;;;;;;1.10;0.50;;;;;;;;;;4955096;28;20569;-65
2024/03/29 02:40:53;;;;;;;1.15;0.50;;;;;;;;;;4953739;28;20518;-64
2024/03/29 02:43:18;;;;;;;2.35;0.57;;;;;;;;;;4948161;28;20127;-63
2024/03/29 02:45:43;;;;;;;0.98;0.40;;;;;;;;;;4960091;28;20042;-64
2024/03/29 02:48:09;;;;;;;1.52;0.35;;;;;;;;;;4961354;28;20121;-66
2024/03/29 02:50:34;;;;;;;1.48;0.50;;;;;;;;;;4951155;28;20038;-61
2024/03/29 02:52:59;;;;;;;1.25;0.52;;;;;;;;;;4960375;28;20440;-63
2024/03/29 02:55:24;;;;;;;1.80;0.52;;;;;;;;;;4956171;28;20039;-62
2024/03/29 02:57:50;;;;;;;1.50;0.68;;;;;;;;;;4959529;28;20062;-64
2024/03/29 03:00:15;;;;;;;1.10;0.50;;;;;;;;;;4958991;28;20045;-64
2024/03/29 03:02:41;;;;;;;1.35;0.55;;;;;;;;;;4947231;28;21311;-61
2024/03/29 03:05:08;;;;;;;1.80;0.75;;;;;;;;;;4952423;28;20031;-61
2024/03/29 03:13:02;;;;;;;1.25;0.50;;;;;;;;;;4964131;28;20040;-61
2024/03/29 03:15:27;;;;;;;1.63;0.52;;;;;;;;;;4963728;28;20035;-64
2024/03/29 03:17:52;;;;;;;1.63;0.70;;;;;;;;;;4962010;28;20037;-62
2024/03/29 03:20:19;;;;;;;2.20;0.50;;;;;;;;;;4960019;28;20113;-64
2024/03/29 03:22:45;;;;;;;1.17;0.40;;;;;;;;;;4961377;28;20614;-59
2024/03/29 03:25:10;;;;;;;1.55;0.70;;;;;;;;;;4955167;28;20089;-60
2024/03/29 03:27:35;;;;;;;0.95;0.50;;;;;;;;;;4956471;28;20082;-60
2024/03/29 03:30:01;;;;;;;0.70;0.40;;;;;;;;;;4957998;28;20046;-65
2024/03/29 03:32:26;;;;;;;0.93;0.40;;;;;;;;;;4954746;28;20089;-62
2024/03/29 03:34:51;;;;;;;1.23;0.50;;;;;;;;;;4960364;28;20090;-61
2024/03/29 03:37:16;;;;;;;1.02;0.50;;;;;;;;;;4952665;28;20034;-62
2024/03/29 03:39:42;;;;;;;0.88;0.40;;;;;;;;;;4956568;28;20570;-62
2024/03/29 03:42:07;;;;;;;2.05;0.70;;;;;;;;;;4959971;28;20031;-63
2024/03/29 03:44:32;;;;;;;1.48;0.57;;;;;;;;;;4962584;28;20081;-60
2024/03/29 03:46:58;;;;;;;1.30;0.45;;;;;;;;;;4952860;28;20133;-61
2024/03/29 03:49:23;;;;;;;1.45;0.60;;;;;;;;;;4963273;28;20054;-60
2024/03/29 03:51:48;;;;;;;1.00;0.40;;;;;;;;;;4964328;28;20045;-62
2024/03/29 03:54:14;;;;;;;1.30;0.52;;;;;;;;;;4949405;28;20054;-60
2024/03/29 03:56:39;;;;;;;1.83;0.47;;;;;;;;;;4959687;28;20049;-61
2024/03/29 03:59:04;;;;;;;1.45;0.57;;;;;;;;;;4956179;28;20031;-63
2024/03/29 04:01:30;;;;;;;1.73;0.70;;;;;;;;;;4954714;28;20511;-62
2024/03/29 04:03:55;;;;;;;1.25;0.50;;;;;;;;;;4965554;28;20157;-64
2024/03/29 04:06:20;;;;;;;1.30;0.50;;;;;;;;;;4976319;28;20038;-62
2024/03/29 04:08:46;;;;;;;0.63;0.40;;;;;;;;;;4960154;28;20043;-61
2024/03/29 04:11:12;;;;;;;1.75;0.40;;;;;;;;;;4960893;28;20063;-62
2024/03/29 04:13:38;;;;;;;2.30;0.60;;;;;;;;;;4976916;28;20165;-62
2024/03/29 04:16:05;;;;;;;1.45;0.57;;;;;;;;;;4957231;28;20113;-62
2024/03/29 04:18:30;;;;;;;1.33;0.50;;;;;;;;;;4955487;28;20059;-61
2024/03/29 04:20:57;;;;;;;0.93;0.50;;;;;;;;;;4950080;28;20130;-62
2024/03/29 04:23:23;;;;;;;1.48;0.60;;;;;;;;;;4952028;28;20487;-62
2024/03/29 04:25:55;;;;;;;1.67;0.40;;;;;;;;;;4954705;28;20119;-61
2024/03/29 04:28:21;;;;;;;1.42;0.50;;;;;;;;;;4952669;28;21143;-62
2024/03/29 04:30:53;;;;;;;0.95;0.47;;;;;;;;;;4953798;28;20046;-62
2024/03/29 04:33:18;;;;;;;1.38;0.57;;;;;;;;;;4955028;28;20077;-63
2024/03/29 04:35:59;;;;;;;2.17;0.50;;;;;;;;;;4954036;28;20078;-61
2024/03/29 04:38:25;;;;;;;2.45;0.50;;;;;;;;;;4951967;28;20078;-63
2024/03/29 04:40:50;;;;;;;1.00;0.55;;;;;;;;;;4953557;28;20054;-61
2024/03/29 04:43:16;;;;;;;1.15;0.60;;;;;;;;;;4953031;28;20064;-62
2024/03/29 04:45:42;;;;;;;1.15;0.65;;;;;;;;;;4952768;28;20179;-64
2024/03/29 04:48:08;;;;;;;1.70;0.60;;;;;;;;;;4954014;28;20525;-62
2024/03/29 04:50:33;;;;;;;1.23;0.60;;;;;;;;;;4952953;28;20042;-62
2024/03/29 04:52:59;;;;;;;2.17;0.80;;;;;;;;;;4953269;28;20126;-63
2024/03/29 04:55:24;;;;;;;0.70;0.30;;;;;;;;;;4953082;28;20279;-62
2024/03/29 04:57:49;;;;;;;0.98;0.40;;;;;;;;;;4954154;28;20153;-62
2024/03/29 05:00:15;;;;;;;0.80;0.50;;;;;;;;;;4953237;28;20127;-62
2024/03/29 05:02:40;;;;;;;1.35;0.63;;;;;;;;;;4953699;28;20369;-63
2024/03/29 05:05:05;;;;;;;1.13;0.50;;;;;;;;;;4953028;28;20034;-61
2024/03/29 05:07:31;;;;;;;0.73;0.43;;;;;;;;;;4954388;28;20521;-62
2024/03/29 05:09:56;;;;;;;1.50;0.50;;;;;;;;;;4953242;28;20038;-63
2024/03/29 05:12:22;;;;;;;0.85;0.50;;;;;;;;;;4941207;28;20046;-61
2024/03/29 05:14:49;;;;;;;1.98;0.40;;;;;;;;;;4935250;28;20523;-66
2024/03/29 05:17:14;;;;;;;1.17;0.30;;;;;;;;;;4946294;28;20090;-66
2024/03/29 05:19:40;;;;;;;0.73;0.40;;;;;;;;;;4954518;28;20062;-63
2024/03/29 05:22:06;;;;;;;1.20;0.60;;;;;;;;;;4952462;28;20519;-61
2024/03/29 05:24:31;;;;;;;1.05;0.60;;;;;;;;;;4952407;28;20102;-62
2024/03/29 05:26:56;;;;;;;1.00;0.57;;;;;;;;;;4953659;28;20030;-63
2024/03/29 05:29:22;;;;;;;0.88;0.40;;;;;;;;;;4951943;28;20047;-65
2024/03/29 05:31:48;;;;;;;1.27;0.52;;;;;;;;;;4952366;28;20102;-62
2024/03/29 05:34:14;;;;;;;1.17;0.45;;;;;;;;;;4952577;28;20058;-62
2024/03/29 05:36:39;;;;;;;1.30;0.60;;;;;;;;;;4953180;28;20027;-62
2024/03/29 05:39:05;;;;;;;0.90;0.40;;;;;;;;;;4952735;28;20427;-62
2024/03/29 05:41:31;;;;;;;1.70;0.43;;;;;;;;;;4952783;28;20092;-61
2024/03/29 05:43:57;;;;;;;1.38;0.68;;;;;;;;;;4953267;28;20121;-61
2024/03/29 05:46:22;;;;;;;1.50;0.38;;;;;;;;;;4951022;28;20039;-63
2024/03/29 05:48:47;;;;;;;1.40;0.50;;;;;;;;;;4952223;28;20879;-61
2024/03/29 05:51:13;;;;;;;0.93;0.30;;;;;;;;;;4952423;28;20062;-62
2024/03/29 05:53:38;;;;;;;1.17;0.40;;;;;;;;;;4949659;28;20067;-63
2024/03/29 05:56:04;;;;;;;1.20;0.50;;;;;;;;;;4951998;28;20117;-62
2024/03/29 05:58:29;;;;;;;3.47;0.60;;;;;;;;;;4952912;28;20027;-62
2024/03/29 06:00:55;;;;;;;0.70;0.40;;;;;;;;;;4953184;28;20042;-61
2024/03/29 06:03:20;;;;;;;1.30;0.50;;;;;;;;;;4952625;28;20031;-61
2024/03/29 06:05:47;;;;;;;1.23;0.50;;;;;;;;;;4953892;28;20035;-61
2024/03/29 06:08:13;;;;;;;1.08;0.65;;;;;;;;;;4952267;28;20109;-62
2024/03/29 06:10:38;;;;;;;1.13;0.40;;;;;;;;;;4951977;28;20046;-62
2024/03/29 06:13:07;;;;;;;1.60;0.60;;;;;;;;;;4950712;28;20127;-63
2024/03/29 06:18:18;;;;;;;1.20;0.55;;;;;;;;;;4953509;28;20066;-61
2024/03/29 06:20:44;;;;;;;3.08;0.45;;;;;;;;;;4953277;28;20031;-63
2024/03/29 06:23:09;;;;;;;1.92;0.73;;;;;;;;;;4951974;28;20039;-62
2024/03/29 06:25:35;;;;;;;1.20;0.50;;;;;;;;;;4953480;28;21011;-62
2024/03/29 06:28:00;;;;;;;1.13;0.60;;;;;;;;;;4935910;28;20035;-61
2024/03/29 06:30:25;;;;;;;1.00;0.45;;;;;;;;;;4933384;28;20054;-62
2024/03/29 06:32:51;;;;;;;0.82;0.40;;;;;;;;;;4934125;28;20047;-62
2024/03/29 06:35:16;;;;;;;0.60;0.40;;;;;;;;;;4934169;28;20137;-62
2024/03/29 06:37:42;;;;;;;0.60;0.30;;;;;;;;;;4933037;28;20043;-61
2024/03/29 06:40:08;;;;;;;0.93;0.40;;;;;;;;;;4933356;28;20531;-62
2024/03/29 06:42:33;;;;;;;1.58;0.40;;;;;;;;;;4949448;28;20118;-61
2024/03/29 06:44:58;;;;;;;1.20;0.50;;;;;;;;;;4952389;28;20043;-62
2024/03/29 06:47:24;;;;;;;2.97;0.80;;;;;;;;;;4951681;28;20086;-63
2024/03/29 06:49:49;;;;;;;3.05;1.10;;;;;;;;;;4953870;28;20043;-61
2024/03/29 06:52:15;;;;;;;2.00;0.73;;;;;;;;;;4951572;28;20041;-62
2024/03/29 06:54:40;;;;;;;2.75;1.27;;;;;;;;;;4951759;28;21771;-61
2024/03/29 06:57:06;;;;;;;3.00;0.80;;;;;;;;;;4952817;28;20534;-61
2024/03/29 06:59:31;;;;;;;2.20;0.80;;;;;;;;;;4952493;28;20042;-61
2024/03/29 07:01:57;;;;;;;2.92;0.80;;;;;;;;;;4951655;28;20035;-61
2024/03/29 07:04:23;;;;;;;2.65;0.90;;;;;;;;;;4952725;28;20039;-62
2024/03/29 07:06:51;;;;;;;2.03;0.90;;;;;;;;;;4952942;28;20162;-63
2024/03/29 07:09:16;;;;;;;2.13;0.77;;;;;;;;;;4952835;28;20054;-62
2024/03/29 07:11:42;;;;;;;2.15;0.95;;;;;;;;;;4951715;28;20050;-61
2024/03/29 07:14:07;;;;;;;3.33;1.00;;;;;;;;;;4954015;28;20038;-60
2024/03/29 07:16:32;;;;;;;2.78;0.90;;;;;;;;;;4955247;28;20046;-61
2024/03/29 07:18:58;;;;;;;4.13;1.23;;;;;;;;;;4955909;28;20027;-60
2024/03/29 07:21:24;;;;;;;2.03;0.90;;;;;;;;;;4953480;28;20121;-61
2024/03/29 07:23:49;;;;;;;2.95;0.90;;;;;;;;;;4955776;28;20566;-61
2024/03/29 07:26:14;;;;;;;3.30;1.10;;;;;;;;;;4954404;28;20043;-62
2024/03/29 07:28:40;;;;;;;1.83;1.00;;;;;;;;;;4955575;28;20042;-61
2024/03/29 07:31:07;;;;;;;4.25;0.90;;;;;;;;;;4952391;28;20058;-61
2024/03/29 07:33:32;;;;;;;3.25;1.10;;;;;;;;;;4951982;28;20042;-62
2024/03/29 07:35:57;;;;;;;2.13;0.73;;;;;;;;;;4950011;28;20030;-64
2024/03/29 07:38:23;;;;;;;3.15;0.90;;;;;;;;;;4951001;28;20588;-63
2024/03/29 07:40:49;;;;;;;2.80;0.90;;;;;;;;;;4949440;28;20719;-63
2024/03/29 07:43:15;;;;;;;1.92;0.82;;;;;;;;;;4951266;28;20538;-62
2024/03/29 07:45:44;;;;;;;1.90;0.85;;;;;;;;;;4949360;28;20558;-62
2024/03/29 07:48:18;;;;;;;3.28;1.00;;;;;;;;;;4950395;28;20061;-63
2024/03/29 07:50:44;;;;;;;3.47;0.80;;;;;;;;;;4950690;28;20058;-64
2024/03/29 07:53:09;;;;;;;1.80;0.77;;;;;;;;;;4950587;28;20865;-62
2024/03/29 07:55:38;;;;;;;5.43;1.00;;;;;;;;;;4951411;28;20104;-61
2024/03/29 07:58:05;;;;;;;1.75;0.93;;;;;;;;;;4950666;28;20466;-62
2024/03/29 08:00:33;;;;;;;2.10;0.90;;;;;;;;;;4947292;28;20046;-61
2024/03/29 08:02:59;;;;;;;2.83;1.00;;;;;;;;;;4931101;28;20048;-61
2024/03/29 08:05:24;;;;;;;3.58;0.93;;;;;;;;;;4930619;28;20036;-63
2024/03/29 08:07:49;;;;;;;2.42;0.68;;;;;;;;;;4929742;28;20059;-62
2024/03/29 08:10:15;;;;;;;2.15;0.90;;;;;;;;;;4931436;28;20048;-64
2024/03/29 08:12:40;;;;;;;2.00;0.82;;;;;;;;;;4932237;28;20039;-60
2024/03/29 08:15:06;;;;;;;2.30;0.80;;;;;;;;;;4933346;28;20035;-61
2024/03/29 08:17:31;;;;;;;2.17;0.90;;;;;;;;;;4950768;28;20043;-61
2024/03/29 08:19:56;;;;;;;2.47;1.00;;;;;;;;;;4951195;28;20050;-60
2024/03/29 08:22:22;;;;;;;2.58;0.90;;;;;;;;;;4950493;28;20043;-60
2024/03/29 08:24:47;;;;;;;2.97;1.20;;;;;;;;;;4949797;28;20245;-61
2024/03/29 08:27:13;;;;;;;1.45;0.73;;;;;;;;;;4951474;28;20094;-59
2024/03/29 08:29:38;;;;;;;2.20;0.90;;;;;;;;;;4949200;28;20115;-62
2024/03/29 08:32:03;;;;;;;1.88;0.88;;;;;;;;;;4935811;28;20098;-60
2024/03/29 08:34:34;;;;;;;3.10;0.95;;;;;;;;;;4950298;28;20049;-59
2024/03/29 08:37:00;;;;;;;3.50;1.35;;;;;;;;;;4965871;28;20038;-61
2024/03/29 08:39:25;;;;;;;2.42;0.88;;;;;;;;;;4947534;28;20768;-61
2024/03/29 08:41:50;;;;;;;2.47;1.00;;;;;;;;;;4934765;28;20502;-59
2024/03/29 08:44:16;;;;;;;1.70;0.90;;;;;;;;;;4951848;28;20594;-62
2024/03/29 08:46:41;;;;;;;3.30;0.90;;;;;;;;;;4952809;28;20028;-63
2024/03/29 08:49:06;;;;;;;2.17;0.80;;;;;;;;;;4951631;28;20134;-60
2024/03/29 08:51:31;;;;;;;3.00;1.30;;;;;;;;;;4951561;28;20027;-61
2024/03/29 08:53:57;;;;;;;1.83;0.90;;;;;;;;;;4944783;28;20039;-61
2024/03/29 08:56:23;;;;;;;2.42;0.90;;;;;;;;;;4935244;28;20039;-61
2024/03/29 08:58:48;;;;;;;2.35;1.10;;;;;;;;;;4950505;28;20140;-64
2024/03/29 09:01:15;;;;;;;3.03;1.05;;;;;;;;;;4950239;28;20066;-61
2024/03/29 09:03:40;;;;;;;2.15;1.00;;;;;;;;;;4950198;28;20043;-61
2024/03/29 09:06:05;;;;;;;3.58;1.17;;;;;;;;;;4948996;28;20031;-61
2024/03/29 09:08:31;;;;;;;2.78;1.17;;;;;;;;;;4951779;28;20158;-63
2024/03/29 09:10:56;;;;;;;3.35;1.20;;;;;;;;;;4955241;28;20636;-61
2024/03/29 09:13:21;;;;;;;3.60;1.30;;;;;;;;;;4947467;28;20117;-62
2024/03/29 09:15:47;;;;;;;2.72;1.08;;;;;;;;;;4937447;28;20071;-61
2024/03/29 09:18:30;;;;;;;3.30;1.00;;;;;;;;;;4935072;28;20392;-61
2024/03/29 09:20:56;;;;;;;3.00;1.10;;;;;;;;;;4934814;28;20046;-61
2024/03/29 09:23:23;;;;;;;1.40;0.82;;;;;;;;;;4967280;28;20062;-61
2024/03/29 09:25:48;;;;;;;2.17;1.15;;;;;;;;;;4963226;28;20547;-60
2024/03/29 09:28:13;;;;;;;1.88;0.85;;;;;;;;;;4961776;28;20035;-61
2024/03/29 09:30:39;;;;;;;2.67;1.08;;;;;;;;;;4953306;28;20054;-61
2024/03/29 09:33:06;;;;;;;1.75;0.90;;;;;;;;;;4966111;28;20037;-60
2024/03/29 09:35:32;;;;;;;2.50;0.80;;;;;;;;;;4964857;28;20031;-61
2024/03/29 09:37:59;;;;;;;2.92;1.13;;;;;;;;;;4983912;28;20147;-61
2024/03/29 09:40:24;;;;;;;2.65;0.80;;;;;;;;;;4967380;28;20039;-61
2024/03/29 09:42:50;;;;;;;2.90;0.90;;;;;;;;;;4959786;28;20094;-62
2024/03/29 09:45:15;;;;;;;2.00;0.90;;;;;;;;;;4965748;28;20046;-61
2024/03/29 09:47:40;;;;;;;3.25;1.10;;;;;;;;;;4980671;28;20031;-61
2024/03/29 09:50:06;;;;;;;4.45;1.02;;;;;;;;;;4967771;28;20046;-60
2024/03/29 09:52:34;;;;;;;1.50;0.80;;;;;;;;;;4962679;28;20396;-61
2024/03/29 09:55:02;;;;;;;1.90;1.00;;;;;;;;;;4965632;28;20050;-62
2024/03/29 09:57:31;;;;;;;4.18;0.93;;;;;;;;;;4956021;28;20203;-61
2024/03/29 09:59:57;;;;;;;3.45;1.13;;;;;;;;;;4952626;28;20046;-61
2024/03/29 10:02:23;;;;;;;3.10;1.00;;;;;;;;;;4953471;28;20031;-61
2024/03/29 10:04:49;;;;;;;4.63;1.17;;;;;;;;;;4949011;28;20104;-60
2024/03/29 10:07:15;;;;;;;1.70;0.80;;;;;;;;;;4950370;28;20035;-62
2024/03/29 10:09:40;;;;;;;3.25;0.93;;;;;;;;;;4941436;28;20533;-65
2024/03/29 10:12:06;;;;;;;2.75;0.80;;;;;;;;;;4935121;28;20032;-61
2024/03/29 10:14:31;;;;;;;4.95;0.95;;;;;;;;;;4943629;28;20066;-61
2024/03/29 10:16:59;;;;;;;3.58;0.95;;;;;;;;;;4952298;28;20474;-62
2024/03/29 10:19:25;;;;;;;3.40;1.00;;;;;;;;;;4953199;28;20464;-64
2024/03/29 10:21:50;;;;;;;2.90;0.90;;;;;;;;;;4951588;28;20041;-61
2024/03/29 10:24:16;;;;;;;5.05;0.90;;;;;;;;;;4952779;28;20061;-62
2024/03/29 10:26:42;;;;;;;4.32;1.00;;;;;;;;;;4951589;28;20122;-62
2024/03/29 10:29:08;;;;;;;4.82;1.02;;;;;;;;;;4953354;28;20413;-62
2024/03/29 10:31:34;;;;;;;2.90;0.80;;;;;;;;;;4954341;28;20578;-63
2024/03/29 10:34:02;;;;;;;6.88;1.17;;;;;;;;;;4952076;28;20476;-64
2024/03/29 10:36:27;;;;;;;7.80;1.38;;;;;;;;;;4953776;28;20078;-66
2024/03/29 10:38:52;;;;;;;6.65;0.93;;;;;;;;;;4952604;28;20296;-63
2024/03/29 10:41:17;;;;;;;5.88;1.10;;;;;;;;;;4951066;28;20437;-63
2024/03/29 10:43:45;;;;;;;5.22;1.00;;;;;;;;;;4951207;28;20043;-64
2024/03/29 10:46:11;;;;;;;3.17;0.82;;;;;;;;;;4950483;28;20043;-63
2024/03/29 10:48:36;;;;;;;4.32;0.80;;;;;;;;;;4950801;28;20042;-63
2024/03/29 10:51:02;;;;;;;3.88;1.20;;;;;;;;;;4953123;28;20043;-62
2024/03/29 10:53:27;;;;;;;5.43;0.80;;;;;;;;;;4951882;28;20519;-62
2024/03/29 10:56:02;;;;;;;4.47;0.90;;;;;;;;;;4951386;28;20046;-62
2024/03/29 10:58:30;;;;;;;4.40;1.00;;;;;;;;;;4950172;28;20134;-62
2024/03/29 11:00:59;;;;;;;4.00;0.80;;;;;;;;;;4951925;28;20372;-64
2024/03/29 11:03:24;;;;;;;4.32;0.82;;;;;;;;;;4952522;28;20035;-63
2024/03/29 11:05:50;;;;;;;3.50;0.80;;;;;;;;;;4952066;28;20092;-63
2024/03/29 11:08:16;;;;;;;4.22;0.90;;;;;;;;;;4951778;28;20042;-63
2024/03/29 11:10:49;;;;;;;3.08;0.73;;;;;;;;;;4951956;28;20565;-64
2024/03/29 11:13:17;;;;;;;6.18;0.90;;;;;;;;;;4952114;28;20047;-62
2024/03/29 11:15:43;;;;;;;2.95;0.80;;;;;;;;;;4951099;28;20109;-62
2024/03/29 11:18:08;;;;;;;4.30;1.05;;;;;;;;;;4952682;28;20090;-62
2024/03/29 11:20:42;;;;;;;4.97;0.82;;;;;;;;;;4950506;28;20031;-62
2024/03/29 11:23:10;;;;;;;3.22;0.75;;;;;;;;;;4950660;28;20031;-62
2024/03/29 11:25:38;;;;;;;6.05;1.02;;;;;;;;;;4951886;28;20122;-62
2024/03/29 11:28:07;;;;;;;3.45;0.75;;;;;;;;;;4949289;28;20051;-63
2024/03/29 11:30:35;;;;;;;3.38;0.63;;;;;;;;;;4950913;28;20035;-62
2024/03/29 11:33:00;;;;;;;3.22;0.98;;;;;;;;;;4932388;28;20050;-62
2024/03/29 11:35:32;;;;;;;2.75;0.60;;;;;;;;;;4932250;28;21063;-62
2024/03/29 11:38:00;;;;;;;4.95;0.80;;;;;;;;;;4935334;28;20031;-61
2024/03/29 11:40:35;;;;;;;3.25;0.80;;;;;;;;;;4952329;28;20043;-61
2024/03/29 11:43:00;;;;;;;3.40;0.95;;;;;;;;;;4953873;28;22039;-62
2024/03/29 11:45:27;;;;;;;5.20;0.60;;;;;;;;;;4950834;28;20058;-62
2024/03/29 11:47:54;;;;;;;3.05;0.65;;;;;;;;;;4951865;28;20097;-62
2024/03/29 11:50:19;;;;;;;3.28;0.90;;;;;;;;;;4949316;28;20052;-60
2024/03/29 11:52:45;;;;;;;3.55;0.82;;;;;;;;;;4952178;28;20554;-70
2024/03/29 11:55:10;;;;;;;4.15;0.80;;;;;;;;;;4950979;28;20066;-63
2024/03/29 11:57:39;;;;;;;3.85;0.70;;;;;;;;;;4950535;28;20208;-62
2024/03/29 12:00:05;;;;;;;3.83;0.93;;;;;;;;;;4951349;28;20036;-63
2024/03/29 12:02:30;;;;;;;4.22;0.95;;;;;;;;;;4950793;28;20093;-65
2024/03/29 12:04:55;;;;;;;3.28;0.77;;;;;;;;;;4950872;28;20114;-63
2024/03/29 12:07:21;;;;;;;3.45;1.08;;;;;;;;;;4953504;28;20063;-62
2024/03/29 12:09:46;;;;;;;2.50;0.85;;;;;;;;;;4965338;28;20049;-63
2024/03/29 12:12:11;;;;;;;2.72;0.80;;;;;;;;;;4953266;28;20038;-62
2024/03/29 12:14:37;;;;;;;3.58;1.00;;;;;;;;;;4951184;28;20943;-63
2024/03/29 12:17:08;;;;;;;3.53;0.90;;;;;;;;;;4950549;28;20462;-63
2024/03/29 12:19:37;;;;;;;3.33;0.70;;;;;;;;;;4952391;28;20031;-63
2024/03/29 12:22:03;;;;;;;3.33;1.00;;;;;;;;;;4951345;28;20105;-62
2024/03/29 12:24:28;;;;;;;2.40;0.63;;;;;;;;;;4951947;28;20672;-64
2024/03/29 12:26:54;;;;;;;2.90;0.90;;;;;;;;;;4951891;28;21669;-62
2024/03/29 12:29:19;;;;;;;3.33;0.90;;;;;;;;;;4966537;28;20130;-63
2024/03/29 12:31:44;;;;;;;3.35;0.80;;;;;;;;;;4951654;28;20047;-69
2024/03/29 12:34:09;;;;;;;3.35;0.80;;;;;;;;;;4951873;28;20069;-63
2024/03/29 12:36:35;;;;;;;4.10;0.98;;;;;;;;;;4952270;28;20249;-61
2024/03/29 12:39:03;;;;;;;2.35;0.90;;;;;;;;;;4952057;28;20039;-65
2024/03/29 12:41:29;;;;;;;4.15;0.68;;;;;;;;;;4951188;28;20035;-64
2024/03/29 12:43:54;;;;;;;3.17;0.93;;;;;;;;;;4955524;28;20034;-62
2024/03/29 12:46:19;;;;;;;1.83;0.70;;;;;;;;;;4954196;28;20036;-59
2024/03/29 12:48:45;;;;;;;2.63;0.80;;;;;;;;;;4956115;28;20098;-62
2024/03/29 12:51:12;;;;;;;3.88;0.70;;;;;;;;;;4954272;28;20038;-61
2024/03/29 12:53:37;;;;;;;3.03;0.85;;;;;;;;;;4952579;28;20070;-62
2024/03/29 12:56:03;;;;;;;3.72;0.80;;;;;;;;;;4952220;28;20067;-60
2024/03/29 12:58:28;;;;;;;1.90;0.60;;;;;;;;;;4963982;28;20523;-59
2024/03/29 13:00:54;;;;;;;3.80;0.65;;;;;;;;;;4962754;28;20097;-60
2024/03/29 13:03:19;;;;;;;2.47;0.70;;;;;;;;;;4966202;28;20061;-62
2024/03/29 13:05:44;;;;;;;4.20;0.93;;;;;;;;;;4965305;28;20043;-65
2024/03/29 13:08:10;;;;;;;2.80;0.85;;;;;;;;;;4970269;28;20038;-61
2024/03/29 13:10:39;;;;;;;4.20;0.80;;;;;;;;;;4965691;28;20085;-62
2024/03/29 13:13:04;;;;;;;2.65;0.68;;;;;;;;;;4975695;28;20034;-60
2024/03/29 13:15:33;;;;;;;3.75;0.70;;;;;;;;;;4965633;28;20098;-61
2024/03/29 13:17:59;;;;;;;3.97;0.82;;;;;;;;;;4957280;28;20038;-60
2024/03/29 13:20:24;;;;;;;3.47;0.90;;;;;;;;;;4965686;28;20042;-62
2024/03/29 13:22:50;;;;;;;1.75;0.50;;;;;;;;;;4972683;28;20078;-61
2024/03/29 13:25:16;;;;;;;2.40;0.60;;;;;;;;;;4971999;28;20105;-60
2024/03/29 13:27:41;;;;;;;3.30;0.80;;;;;;;;;;4964912;28;20130;-61
2024/03/29 13:30:07;;;;;;;3.95;0.90;;;;;;;;;;4965780;28;20551;-62
2024/03/29 13:32:34;;;;;;;3.20;0.80;;;;;;;;;;4966703;28;20565;-61
2024/03/29 13:34:59;;;;;;;2.88;0.60;;;;;;;;;;4963693;28;20035;-68
2024/03/29 13:37:28;;;;;;;2.17;0.50;;;;;;;;;;4963591;28;20043;-61
2024/03/29 13:39:54;;;;;;;3.53;0.70;;;;;;;;;;4963476;28;20471;-60
2024/03/29 13:42:20;;;;;;;2.00;0.60;;;;;;;;;;4963082;28;20162;-62
2024/03/29 13:44:46;;;;;;;1.45;0.50;;;;;;;;;;4972435;28;20042;-61
2024/03/29 13:47:15;;;;;;;1.17;0.60;;;;;;;;;;4964775;28;20140;-62
2024/03/29 13:49:41;;;;;;;2.83;0.63;;;;;;;;;;4968928;28;20130;-61
2024/03/29 13:52:06;;;;;;;2.70;0.60;;;;;;;;;;4973901;28;20174;-61
2024/03/29 13:54:33;;;;;;;2.05;0.73;;;;;;;;;;4964299;28;20061;-62
2024/03/29 13:56:59;;;;;;;1.30;0.40;;;;;;;;;;4960054;28;20379;-61
2024/03/29 13:59:24;;;;;;;1.92;0.50;;;;;;;;;;4969398;28;20649;-61
2024/03/29 14:01:49;;;;;;;2.72;0.57;;;;;;;;;;4960548;28;20050;-65
2024/03/29 14:04:14;;;;;;;1.40;0.40;;;;;;;;;;4960666;28;20035;-61
2024/03/29 14:06:40;;;;;;;1.60;0.52;;;;;;;;;;4968700;28;20047;-62
2024/03/29 14:09:05;;;;;;;1.77;0.55;;;;;;;;;;4945803;28;20151;-62
2024/03/29 14:11:30;;;;;;;1.92;0.40;;;;;;;;;;4955119;28;20057;-62
2024/03/29 14:13:56;;;;;;;2.08;0.77;;;;;;;;;;4954756;28;20043;-62
2024/03/29 14:16:22;;;;;;;1.75;0.50;;;;;;;;;;4961458;28;20411;-62
2024/03/29 14:18:47;;;;;;;2.05;0.50;;;;;;;;;;4958816;28;20038;-64
2024/03/29 14:21:12;;;;;;;2.67;0.50;;;;;;;;;;4964733;28;20039;-62
2024/03/29 14:23:38;;;;;;;3.13;0.40;;;;;;;;;;4964202;28;20545;-61
2024/03/29 14:26:03;;;;;;;2.17;0.40;;;;;;;;;;4965004;28;20039;-62
2024/03/29 14:28:28;;;;;;;2.30;0.50;;;;;;;;;;4972437;28;20046;-63
2024/03/29 14:30:53;;;;;;;3.17;0.50;;;;;;;;;;4964954;28;20039;-63
2024/03/29 14:33:19;;;;;;;2.00;0.40;;;;;;;;;;4963410;28;20065;-62
2024/03/29 14:35:47;;;;;;;0.95;0.40;;;;;;;;;;4964004;28;20035;-61
2024/03/29 14:38:14;;;;;;;1.55;0.60;;;;;;;;;;4977947;28;20121;-60
2024/03/29 14:40:39;;;;;;;2.85;0.60;;;;;;;;;;4961297;28;20031;-62
2024/03/29 14:43:05;;;;;;;2.20;0.47;;;;;;;;;;4949296;28;20126;-62